aviador You're here:

SMJP Decoded Metar

ZANDERY in SURINAM
Report Time2018-01-18 09:24:00
UTC Time2018-01-18 09:59:08
Flight Rules lifr LIFR
Wind300° at 01 kt
W.Decomp.*RWY 29: 0.9 kt HW 0.5 kt RCW
W.Rank300° ranks 34
Current wind is below 300° avg. (3.4)
Visibility0900 m
Phenomena:Fog
Clouds:Scattered 004 Hf
Expected CloudBase > 400 ft AGL from Temp-Dew spread
CeilingNone
Temp23°C (ISA +8)
Dew Point22°C (94% RH)
QNH1012 hPa
Density Alt1,375 ft
Elevation52 ft
Report Wrong Elevation
Raw Report
SPECI SMJP 180924Z 30001KT 0900 FG SCT004 23/22 Q1012 BECMG AT1115
2000 BR=

Extra information for SMJP:More info

Metar Taf Metar & Taf Last 4 Metars F.Rules Stats Wind Profile Meteogram Temp Stats Airport Information Weather charts Add Link Nearby VenuesMetar ALERT Operation Metar Decoded Social comments